sensor_id;sensor_type;location;lat;lon;timestamp;P1;durP1;ratioP1;P2;durP2;ratioP2
66175;SDS011;52977;44.816;20.538;2023-08-07T00:00:50;2.80;;;0.90;;
66175;SDS011;52977;44.816;20.538;2023-08-07T00:03:17;3.97;;;1.17;;
66175;SDS011;52977;44.816;20.538;2023-08-07T00:05:49;2.20;;;1.00;;
66175;SDS011;52977;44.816;20.538;2023-08-07T00:08:17;2.95;;;1.25;;
66175;SDS011;52977;44.816;20.538;2023-08-07T00:10:43;3.60;;;1.20;;
66175;SDS011;52977;44.816;20.538;2023-08-07T00:13:10;5.15;;;1.00;;
66175;SDS011;52977;44.816;20.538;2023-08-07T00:15:39;3.33;;;1.60;;
66175;SDS011;52977;44.816;20.538;2023-08-07T00:18:05;2.85;;;1.13;;
66175;SDS011;52977;44.816;20.538;2023-08-07T00:20:31;2.25;;;1.10;;
66175;SDS011;52977;44.816;20.538;2023-08-07T00:22:57;3.20;;;1.10;;
66175;SDS011;52977;44.816;20.538;2023-08-07T00:25:24;3.35;;;1.17;;
66175;SDS011;52977;44.816;20.538;2023-08-07T00:27:50;2.40;;;1.13;;
66175;SDS011;52977;44.816;20.538;2023-08-07T00:30:16;2.50;;;1.20;;
66175;SDS011;52977;44.816;20.538;2023-08-07T00:32:43;1.95;;;1.05;;
66175;SDS011;52977;44.816;20.538;2023-08-07T00:35:09;3.00;;;1.27;;
66175;SDS011;52977;44.816;20.538;2023-08-07T00:37:35;2.53;;;1.20;;
66175;SDS011;52977;44.816;20.538;2023-08-07T00:40:01;4.00;;;1.27;;
66175;SDS011;52977;44.816;20.538;2023-08-07T00:42:28;2.50;;;1.15;;
66175;SDS011;52977;44.816;20.538;2023-08-07T00:44:54;2.58;;;1.30;;
66175;SDS011;52977;44.816;20.538;2023-08-07T00:47:20;3.67;;;1.50;;
66175;SDS011;52977;44.816;20.538;2023-08-07T00:49:47;2.08;;;1.10;;
66175;SDS011;52977;44.816;20.538;2023-08-07T00:52:14;3.22;;;1.17;;
66175;SDS011;52977;44.816;20.538;2023-08-07T00:54:40;3.28;;;1.35;;
66175;SDS011;52977;44.816;20.538;2023-08-07T00:57:11;2.42;;;1.20;;
66175;SDS011;52977;44.816;20.538;2023-08-07T00:59:40;3.13;;;1.30;;
66175;SDS011;52977;44.816;20.538;2023-08-07T01:02:08;4.75;;;1.50;;
66175;SDS011;52977;44.816;20.538;2023-08-07T01:04:35;3.88;;;1.60;;
66175;SDS011;52977;44.816;20.538;2023-08-07T01:07:01;2.47;;;1.30;;
66175;SDS011;52977;44.816;20.538;2023-08-07T01:09:27;3.58;;;1.40;;
66175;SDS011;52977;44.816;20.538;2023-08-07T01:12:11;3.47;;;1.45;;
66175;SDS011;52977;44.816;20.538;2023-08-07T01:14:49;3.85;;;1.75;;
66175;SDS011;52977;44.816;20.538;2023-08-07T01:17:27;4.72;;;1.50;;
66175;SDS011;52977;44.816;20.538;2023-08-07T01:19:54;5.70;;;1.45;;
66175;SDS011;52977;44.816;20.538;2023-08-07T01:22:21;3.47;;;1.50;;
66175;SDS011;52977;44.816;20.538;2023-08-07T01:24:49;3.90;;;1.60;;
66175;SDS011;52977;44.816;20.538;2023-08-07T01:32:27;3.67;;;1.17;;
66175;SDS011;52977;44.816;20.538;2023-08-07T01:35:01;3.10;;;1.27;;
66175;SDS011;52977;44.816;20.538;2023-08-07T01:37:29;2.88;;;1.30;;
66175;SDS011;52977;44.816;20.538;2023-08-07T01:39:58;2.92;;;1.38;;
66175;SDS011;52977;44.816;20.538;2023-08-07T01:42:26;2.90;;;1.30;;
66175;SDS011;52977;44.816;20.538;2023-08-07T01:44:53;3.60;;;1.70;;
66175;SDS011;52977;44.816;20.538;2023-08-07T01:47:19;3.65;;;1.58;;
66175;SDS011;52977;44.816;20.538;2023-08-07T01:49:46;3.00;;;1.48;;
66175;SDS011;52977;44.816;20.538;2023-08-07T01:52:12;3.70;;;1.60;;
66175;SDS011;52977;44.816;20.538;2023-08-07T01:54:39;3.15;;;1.45;;
66175;SDS011;52977;44.816;20.538;2023-08-07T01:57:05;3.28;;;1.48;;
66175;SDS011;52977;44.816;20.538;2023-08-07T01:59:31;5.78;;;1.40;;
66175;SDS011;52977;44.816;20.538;2023-08-07T02:01:58;4.25;;;1.48;;
66175;SDS011;52977;44.816;20.538;2023-08-07T02:04:24;4.30;;;1.42;;
66175;SDS011;52977;44.816;20.538;2023-08-07T02:06:52;3.35;;;1.20;;
66175;SDS011;52977;44.816;20.538;2023-08-07T02:09:22;3.35;;;1.25;;
66175;SDS011;52977;44.816;20.538;2023-08-07T02:11:48;2.80;;;1.20;;
66175;SDS011;52977;44.816;20.538;2023-08-07T02:14:14;3.35;;;1.33;;
66175;SDS011;52977;44.816;20.538;2023-08-07T02:16:41;5.38;;;1.88;;
66175;SDS011;52977;44.816;20.538;2023-08-07T02:19:07;3.03;;;1.30;;
66175;SDS011;52977;44.816;20.538;2023-08-07T02:21:33;2.30;;;1.08;;
66175;SDS011;52977;44.816;20.538;2023-08-07T02:23:59;4.43;;;1.38;;
66175;SDS011;52977;44.816;20.538;2023-08-07T02:26:25;2.90;;;1.38;;
66175;SDS011;52977;44.816;20.538;2023-08-07T02:28:51;3.10;;;1.45;;
66175;SDS011;52977;44.816;20.538;2023-08-07T02:31:17;3.22;;;1.40;;
66175;SDS011;52977;44.816;20.538;2023-08-07T02:33:43;3.90;;;1.48;;
66175;SDS011;52977;44.816;20.538;2023-08-07T02:36:09;3.40;;;1.60;;
66175;SDS011;52977;44.816;20.538;2023-08-07T02:38:36;3.03;;;1.50;;
66175;SDS011;52977;44.816;20.538;2023-08-07T02:41:02;3.80;;;1.60;;
66175;SDS011;52977;44.816;20.538;2023-08-07T02:43:28;3.15;;;1.58;;
66175;SDS011;52977;44.816;20.538;2023-08-07T02:45:54;2.90;;;1.40;;
66175;SDS011;52977;44.816;20.538;2023-08-07T02:48:20;2.97;;;1.40;;
66175;SDS011;52977;44.816;20.538;2023-08-07T02:50:46;2.35;;;1.10;;
66175;SDS011;52977;44.816;20.538;2023-08-07T02:53:13;2.08;;;0.98;;
66175;SDS011;52977;44.816;20.538;2023-08-07T02:55:39;2.70;;;1.40;;
66175;SDS011;52977;44.816;20.538;2023-08-07T02:58:05;3.33;;;1.40;;
66175;SDS011;52977;44.816;20.538;2023-08-07T03:00:31;6.93;;;1.42;;
66175;SDS011;52977;44.816;20.538;2023-08-07T03:03:22;2.10;;;0.95;;
66175;SDS011;52977;44.816;20.538;2023-08-07T03:05:49;2.88;;;1.23;;
66175;SDS011;52977;44.816;20.538;2023-08-07T03:08:16;5.28;;;1.10;;
66175;SDS011;52977;44.816;20.538;2023-08-07T03:10:42;4.28;;;1.08;;
66175;SDS011;52977;44.816;20.538;2023-08-07T03:13:16;3.13;;;1.20;;
66175;SDS011;52977;44.816;20.538;2023-08-07T03:15:42;3.47;;;1.05;;
66175;SDS011;52977;44.816;20.538;2023-08-07T03:18:08;2.45;;;1.20;;
66175;SDS011;52977;44.816;20.538;2023-08-07T03:20:36;2.33;;;1.10;;
66175;SDS011;52977;44.816;20.538;2023-08-07T03:23:02;3.53;;;1.23;;
66175;SDS011;52977;44.816;20.538;2023-08-07T03:25:29;2.88;;;0.93;;
66175;SDS011;52977;44.816;20.538;2023-08-07T03:27:55;2.67;;;1.20;;
66175;SDS011;52977;44.816;20.538;2023-08-07T03:30:21;3.63;;;1.17;;
66175;SDS011;52977;44.816;20.538;2023-08-07T03:32:47;3.17;;;1.05;;
66175;SDS011;52977;44.816;20.538;2023-08-07T03:35:14;4.10;;;1.00;;
66175;SDS011;52977;44.816;20.538;2023-08-07T03:37:41;2.53;;;1.10;;
66175;SDS011;52977;44.816;20.538;2023-08-07T03:40:07;2.40;;;1.10;;
66175;SDS011;52977;44.816;20.538;2023-08-07T03:42:33;2.55;;;1.00;;
66175;SDS011;52977;44.816;20.538;2023-08-07T03:45:01;3.55;;;1.10;;
66175;SDS011;52977;44.816;20.538;2023-08-07T03:47:27;1.77;;;0.90;;
66175;SDS011;52977;44.816;20.538;2023-08-07T03:49:54;2.53;;;1.02;;
66175;SDS011;52977;44.816;20.538;2023-08-07T03:52:21;3.50;;;0.90;;
66175;SDS011;52977;44.816;20.538;2023-08-07T03:54:47;3.22;;;1.42;;
66175;SDS011;52977;44.816;20.538;2023-08-07T03:57:13;2.55;;;1.20;;
66175;SDS011;52977;44.816;20.538;2023-08-07T03:59:39;2.15;;;1.00;;
66175;SDS011;52977;44.816;20.538;2023-08-07T04:02:05;4.50;;;1.30;;
66175;SDS011;52977;44.816;20.538;2023-08-07T04:04:31;2.13;;;0.93;;
66175;SDS011;52977;44.816;20.538;2023-08-07T04:06:57;3.40;;;1.02;;
66175;SDS011;52977;44.816;20.538;2023-08-07T04:09:23;3.88;;;1.13;;
66175;SDS011;52977;44.816;20.538;2023-08-07T04:11:49;2.20;;;0.98;;
66175;SDS011;52977;44.816;20.538;2023-08-07T04:14:18;5.38;;;1.40;;
66175;SDS011;52977;44.816;20.538;2023-08-07T04:16:44;2.95;;;1.40;;
66175;SDS011;52977;44.816;20.538;2023-08-07T04:19:11;2.88;;;1.27;;
66175;SDS011;52977;44.816;20.538;2023-08-07T04:21:36;3.35;;;1.35;;
66175;SDS011;52977;44.816;20.538;2023-08-07T04:24:02;2.20;;;1.08;;
66175;SDS011;52977;44.816;20.538;2023-08-07T04:26:36;2.53;;;1.20;;
66175;SDS011;52977;44.816;20.538;2023-08-07T04:29:03;4.22;;;1.08;;
66175;SDS011;52977;44.816;20.538;2023-08-07T04:31:29;2.78;;;1.00;;
66175;SDS011;52977;44.816;20.538;2023-08-07T04:33:58;3.25;;;1.13;;
66175;SDS011;52977;44.816;20.538;2023-08-07T04:36:24;3.50;;;1.20;;
66175;SDS011;52977;44.816;20.538;2023-08-07T04:38:51;2.50;;;1.13;;
66175;SDS011;52977;44.816;20.538;2023-08-07T04:41:17;2.30;;;1.20;;
66175;SDS011;52977;44.816;20.538;2023-08-07T04:43:42;3.42;;;1.20;;
66175;SDS011;52977;44.816;20.538;2023-08-07T04:46:08;2.22;;;1.00;;
66175;SDS011;52977;44.816;20.538;2023-08-07T04:48:37;2.67;;;1.27;;
66175;SDS011;52977;44.816;20.538;2023-08-07T04:51:03;3.95;;;1.10;;
66175;SDS011;52977;44.816;20.538;2023-08-07T04:53:28;2.85;;;1.20;;
66175;SDS011;52977;44.816;20.538;2023-08-07T04:55:54;2.72;;;1.30;;
66175;SDS011;52977;44.816;20.538;2023-08-07T04:58:20;2.40;;;1.10;;
66175;SDS011;52977;44.816;20.538;2023-08-07T05:00:45;2.80;;;1.17;;
66175;SDS011;52977;44.816;20.538;2023-08-07T05:03:11;2.80;;;1.30;;
66175;SDS011;52977;44.816;20.538;2023-08-07T05:05:37;3.33;;;1.52;;
66175;SDS011;52977;44.816;20.538;2023-08-07T05:08:02;4.55;;;1.58;;
66175;SDS011;52977;44.816;20.538;2023-08-07T05:10:28;3.67;;;1.42;;
66175;SDS011;52977;44.816;20.538;2023-08-07T05:12:55;4.50;;;1.40;;
66175;SDS011;52977;44.816;20.538;2023-08-07T05:15:24;5.85;;;1.50;;
66175;SDS011;52977;44.816;20.538;2023-08-07T05:17:51;3.65;;;1.50;;
66175;SDS011;52977;44.816;20.538;2023-08-07T05:20:17;4.63;;;1.40;;
66175;SDS011;52977;44.816;20.538;2023-08-07T05:22:43;3.15;;;1.50;;
66175;SDS011;52977;44.816;20.538;2023-08-07T05:25:09;4.75;;;1.70;;
66175;SDS011;52977;44.816;20.538;2023-08-07T05:27:36;3.20;;;1.50;;
66175;SDS011;52977;44.816;20.538;2023-08-07T05:30:03;2.55;;;1.40;;
66175;SDS011;52977;44.816;20.538;2023-08-07T05:32:30;5.78;;;1.70;;
66175;SDS011;52977;44.816;20.538;2023-08-07T05:34:58;3.60;;;1.60;;
66175;SDS011;52977;44.816;20.538;2023-08-07T05:37:24;3.50;;;1.40;;
66175;SDS011;52977;44.816;20.538;2023-08-07T05:39:49;3.28;;;1.50;;
66175;SDS011;52977;44.816;20.538;2023-08-07T05:42:16;5.35;;;1.50;;
66175;SDS011;52977;44.816;20.538;2023-08-07T05:44:42;2.70;;;1.23;;
66175;SDS011;52977;44.816;20.538;2023-08-07T05:47:08;3.60;;;1.40;;
66175;SDS011;52977;44.816;20.538;2023-08-07T05:49:34;5.10;;;1.50;;
66175;SDS011;52977;44.816;20.538;2023-08-07T05:52:00;13.35;;;2.72;;
66175;SDS011;52977;44.816;20.538;2023-08-07T05:54:26;34.30;;;4.80;;
66175;SDS011;52977;44.816;20.538;2023-08-07T05:56:52;26.98;;;3.92;;
66175;SDS011;52977;44.816;20.538;2023-08-07T05:59:18;18.08;;;3.08;;
66175;SDS011;52977;44.816;20.538;2023-08-07T06:01:44;12.50;;;2.55;;
66175;SDS011;52977;44.816;20.538;2023-08-07T06:04:10;6.55;;;2.00;;
66175;SDS011;52977;44.816;20.538;2023-08-07T06:06:36;7.32;;;1.95;;
66175;SDS011;52977;44.816;20.538;2023-08-07T06:09:05;4.72;;;1.55;;
66175;SDS011;52977;44.816;20.538;2023-08-07T06:11:32;6.18;;;1.80;;
66175;SDS011;52977;44.816;20.538;2023-08-07T06:13:58;6.88;;;1.73;;
66175;SDS011;52977;44.816;20.538;2023-08-07T06:16:24;5.13;;;1.40;;
66175;SDS011;52977;44.816;20.538;2023-08-07T06:18:50;6.20;;;1.55;;
66175;SDS011;52977;44.816;20.538;2023-08-07T06:21:15;6.05;;;1.95;;
66175;SDS011;52977;44.816;20.538;2023-08-07T06:23:42;7.82;;;2.88;;
66175;SDS011;52977;44.816;20.538;2023-08-07T06:26:08;5.47;;;2.58;;
66175;SDS011;52977;44.816;20.538;2023-08-07T06:28:35;6.35;;;2.85;;
66175;SDS011;52977;44.816;20.538;2023-08-07T06:31:07;11.25;;;4.38;;
66175;SDS011;52977;44.816;20.538;2023-08-07T06:33:35;15.63;;;7.38;;
66175;SDS011;52977;44.816;20.538;2023-08-07T06:36:01;28.95;;;12.98;;
66175;SDS011;52977;44.816;20.538;2023-08-07T06:38:28;45.40;;;18.02;;
66175;SDS011;52977;44.816;20.538;2023-08-07T06:40:54;28.08;;;12.25;;
66175;SDS011;52977;44.816;20.538;2023-08-07T06:43:19;19.23;;;8.65;;
66175;SDS011;52977;44.816;20.538;2023-08-07T06:45:54;11.30;;;4.95;;
66175;SDS011;52977;44.816;20.538;2023-08-07T06:48:20;10.45;;;4.55;;
66175;SDS011;52977;44.816;20.538;2023-08-07T06:50:46;7.47;;;3.00;;
66175;SDS011;52977;44.816;20.538;2023-08-07T06:53:13;9.70;;;3.75;;
66175;SDS011;52977;44.816;20.538;2023-08-07T06:55:40;7.63;;;2.88;;
66175;SDS011;52977;44.816;20.538;2023-08-07T06:58:06;7.07;;;2.60;;
66175;SDS011;52977;44.816;20.538;2023-08-07T07:00:34;3.30;;;1.52;;
66175;SDS011;52977;44.816;20.538;2023-08-07T07:03:01;6.38;;;1.80;;
66175;SDS011;52977;44.816;20.538;2023-08-07T07:05:27;4.53;;;1.50;;
66175;SDS011;52977;44.816;20.538;2023-08-07T07:07:53;3.95;;;1.33;;
66175;SDS011;52977;44.816;20.538;2023-08-07T07:10:19;3.00;;;1.42;;
66175;SDS011;52977;44.816;20.538;2023-08-07T07:12:45;3.50;;;1.50;;
66175;SDS011;52977;44.816;20.538;2023-08-07T07:15:11;4.07;;;1.50;;
66175;SDS011;52977;44.816;20.538;2023-08-07T07:17:37;3.60;;;1.33;;
66175;SDS011;52977;44.816;20.538;2023-08-07T07:20:03;3.28;;;1.27;;
66175;SDS011;52977;44.816;20.538;2023-08-07T07:22:29;2.78;;;1.40;;
66175;SDS011;52977;44.816;20.538;2023-08-07T07:24:55;5.47;;;1.50;;
66175;SDS011;52977;44.816;20.538;2023-08-07T07:27:21;3.03;;;1.35;;
66175;SDS011;52977;44.816;20.538;2023-08-07T07:29:48;3.63;;;1.38;;
66175;SDS011;52977;44.816;20.538;2023-08-07T07:32:14;3.85;;;1.30;;
66175;SDS011;52977;44.816;20.538;2023-08-07T07:34:40;3.70;;;1.40;;
66175;SDS011;52977;44.816;20.538;2023-08-07T07:37:05;2.60;;;1.10;;
66175;SDS011;52977;44.816;20.538;2023-08-07T07:39:31;2.17;;;1.30;;
66175;SDS011;52977;44.816;20.538;2023-08-07T07:41:59;4.25;;;1.27;;
66175;SDS011;52977;44.816;20.538;2023-08-07T07:44:25;4.53;;;1.52;;
66175;SDS011;52977;44.816;20.538;2023-08-07T07:46:52;3.35;;;1.10;;
66175;SDS011;52977;44.816;20.538;2023-08-07T07:49:18;2.40;;;1.30;;
66175;SDS011;52977;44.816;20.538;2023-08-07T07:51:44;2.05;;;1.20;;
66175;SDS011;52977;44.816;20.538;2023-08-07T07:54:12;2.65;;;1.05;;
66175;SDS011;52977;44.816;20.538;2023-08-07T07:56:38;2.92;;;1.27;;
66175;SDS011;52977;44.816;20.538;2023-08-07T07:59:04;3.22;;;1.30;;
66175;SDS011;52977;44.816;20.538;2023-08-07T08:01:30;3.58;;;1.50;;
66175;SDS011;52977;44.816;20.538;2023-08-07T08:03:57;6.53;;;1.30;;
66175;SDS011;52977;44.816;20.538;2023-08-07T08:06:23;5.05;;;1.45;;
66175;SDS011;52977;44.816;20.538;2023-08-07T08:08:49;4.13;;;1.52;;
66175;SDS011;52977;44.816;20.538;2023-08-07T08:11:14;3.75;;;1.27;;
66175;SDS011;52977;44.816;20.538;2023-08-07T08:13:41;2.67;;;1.23;;
66175;SDS011;52977;44.816;20.538;2023-08-07T08:16:07;2.70;;;1.35;;
66175;SDS011;52977;44.816;20.538;2023-08-07T08:18:32;2.70;;;1.40;;
66175;SDS011;52977;44.816;20.538;2023-08-07T08:20:59;3.90;;;1.42;;
66175;SDS011;52977;44.816;20.538;2023-08-07T08:23:25;4.00;;;1.42;;
66175;SDS011;52977;44.816;20.538;2023-08-07T08:25:51;2.67;;;1.30;;
66175;SDS011;52977;44.816;20.538;2023-08-07T08:28:17;3.28;;;1.30;;
66175;SDS011;52977;44.816;20.538;2023-08-07T08:30:44;2.60;;;1.30;;
66175;SDS011;52977;44.816;20.538;2023-08-07T08:33:10;4.28;;;1.35;;
66175;SDS011;52977;44.816;20.538;2023-08-07T08:35:56;2.42;;;1.10;;
66175;SDS011;52977;44.816;20.538;2023-08-07T08:38:22;5.38;;;1.23;;
66175;SDS011;52977;44.816;20.538;2023-08-07T08:40:49;2.72;;;1.05;;
66175;SDS011;52977;44.816;20.538;2023-08-07T08:43:17;5.38;;;1.30;;
66175;SDS011;52977;44.816;20.538;2023-08-07T08:45:44;2.97;;;1.35;;
66175;SDS011;52977;44.816;20.538;2023-08-07T08:48:11;2.47;;;1.20;;
66175;SDS011;52977;44.816;20.538;2023-08-07T08:50:46;4.68;;;1.15;;
66175;SDS011;52977;44.816;20.538;2023-08-07T08:53:15;3.03;;;1.10;;
66175;SDS011;52977;44.816;20.538;2023-08-07T08:55:41;3.90;;;1.20;;
66175;SDS011;52977;44.816;20.538;2023-08-07T08:58:12;3.60;;;1.27;;
66175;SDS011;52977;44.816;20.538;2023-08-07T09:00:41;2.60;;;1.23;;
66175;SDS011;52977;44.816;20.538;2023-08-07T09:03:07;2.83;;;1.10;;
66175;SDS011;52977;44.816;20.538;2023-08-07T09:05:33;4.40;;;1.23;;
66175;SDS011;52977;44.816;20.538;2023-08-07T09:08:01;2.08;;;1.05;;
66175;SDS011;52977;44.816;20.538;2023-08-07T09:10:28;2.55;;;1.40;;
66175;SDS011;52977;44.816;20.538;2023-08-07T09:13:01;3.05;;;1.08;;
66175;SDS011;52977;44.816;20.538;2023-08-07T09:15:31;2.13;;;1.02;;
66175;SDS011;52977;44.816;20.538;2023-08-07T09:17:58;2.80;;;1.20;;
66175;SDS011;52977;44.816;20.538;2023-08-07T09:20:25;2.95;;;0.90;;
66175;SDS011;52977;44.816;20.538;2023-08-07T09:22:52;2.40;;;1.10;;
66175;SDS011;52977;44.816;20.538;2023-08-07T09:25:31;3.90;;;1.10;;
66175;SDS011;52977;44.816;20.538;2023-08-07T09:28:01;2.78;;;1.30;;
66175;SDS011;52977;44.816;20.538;2023-08-07T09:30:30;2.85;;;1.10;;
66175;SDS011;52977;44.816;20.538;2023-08-07T09:32:57;2.42;;;1.13;;
66175;SDS011;52977;44.816;20.538;2023-08-07T09:35:24;2.92;;;1.40;;
66175;SDS011;52977;44.816;20.538;2023-08-07T09:37:50;2.53;;;1.25;;
66175;SDS011;52977;44.816;20.538;2023-08-07T09:40:20;3.05;;;1.38;;
66175;SDS011;52977;44.816;20.538;2023-08-07T09:42:49;2.00;;;1.10;;
66175;SDS011;52977;44.816;20.538;2023-08-07T09:45:25;3.20;;;1.13;;
66175;SDS011;52977;44.816;20.538;2023-08-07T09:47:59;3.35;;;1.00;;
66175;SDS011;52977;44.816;20.538;2023-08-07T09:50:27;2.33;;;0.98;;
66175;SDS011;52977;44.816;20.538;2023-08-07T09:52:54;3.55;;;1.13;;
66175;SDS011;52977;44.816;20.538;2023-08-07T09:55:27;2.40;;;1.05;;
66175;SDS011;52977;44.816;20.538;2023-08-07T09:57:53;2.45;;;1.10;;
66175;SDS011;52977;44.816;20.538;2023-08-07T10:00:20;2.00;;;0.90;;
66175;SDS011;52977;44.816;20.538;2023-08-07T10:02:47;2.88;;;1.20;;
66175;SDS011;52977;44.816;20.538;2023-08-07T10:05:14;1.35;;;0.70;;
66175;SDS011;52977;44.816;20.538;2023-08-07T10:07:40;1.85;;;0.95;;
66175;SDS011;52977;44.816;20.538;2023-08-07T10:10:07;3.03;;;1.23;;
66175;SDS011;52977;44.816;20.538;2023-08-07T10:12:35;2.70;;;1.13;;
66175;SDS011;52977;44.816;20.538;2023-08-07T10:15:02;2.47;;;1.05;;
66175;SDS011;52977;44.816;20.538;2023-08-07T10:17:29;2.78;;;1.10;;
66175;SDS011;52977;44.816;20.538;2023-08-07T10:19:57;3.50;;;1.20;;
66175;SDS011;52977;44.816;20.538;2023-08-07T10:22:24;2.50;;;1.20;;
66175;SDS011;52977;44.816;20.538;2023-08-07T10:24:53;2.50;;;1.00;;
66175;SDS011;52977;44.816;20.538;2023-08-07T10:27:21;2.78;;;1.13;;
66175;SDS011;52977;44.816;20.538;2023-08-07T10:29:49;1.88;;;1.00;;
66175;SDS011;52977;44.816;20.538;2023-08-07T10:32:17;2.30;;;1.20;;
66175;SDS011;52977;44.816;20.538;2023-08-07T10:34:52;3.35;;;1.00;;
66175;SDS011;52977;44.816;20.538;2023-08-07T10:40:08;1.95;;;0.90;;
66175;SDS011;52977;44.816;20.538;2023-08-07T10:42:49;2.47;;;1.20;;
66175;SDS011;52977;44.816;20.538;2023-08-07T10:45:37;2.05;;;0.95;;
66175;SDS011;52977;44.816;20.538;2023-08-07T10:50:49;2.30;;;1.20;;
66175;SDS011;52977;44.816;20.538;2023-08-07T10:53:29;1.75;;;1.00;;
66175;SDS011;52977;44.816;20.538;2023-08-07T10:56:03;1.98;;;0.90;;
66175;SDS011;52977;44.816;20.538;2023-08-07T10:58:33;2.35;;;1.08;;
66175;SDS011;52977;44.816;20.538;2023-08-07T11:01:17;2.92;;;1.20;;
66175;SDS011;52977;44.816;20.538;2023-08-07T11:06:13;1.90;;;0.90;;
66175;SDS011;52977;44.816;20.538;2023-08-07T11:08:40;2.58;;;1.02;;
66175;SDS011;52977;44.816;20.538;2023-08-07T11:11:06;4.35;;;1.58;;
66175;SDS011;52977;44.816;20.538;2023-08-07T11:13:33;3.10;;;1.20;;
66175;SDS011;52977;44.816;20.538;2023-08-07T11:16:02;4.88;;;1.25;;
66175;SDS011;52977;44.816;20.538;2023-08-07T11:18:29;2.80;;;1.20;;
66175;SDS011;52977;44.816;20.538;2023-08-07T11:20:56;21.85;;;3.42;;
66175;SDS011;52977;44.816;20.538;2023-08-07T11:23:24;28.70;;;6.15;;
66175;SDS011;52977;44.816;20.538;2023-08-07T11:25:54;8.60;;;2.08;;
66175;SDS011;52977;44.816;20.538;2023-08-07T11:28:21;21.90;;;4.95;;
66175;SDS011;52977;44.816;20.538;2023-08-07T11:30:48;20.38;;;3.88;;
66175;SDS011;52977;44.816;20.538;2023-08-07T11:33:16;4.28;;;1.50;;
66175;SDS011;52977;44.816;20.538;2023-08-07T11:35:43;3.58;;;1.40;;
66175;SDS011;52977;44.816;20.538;2023-08-07T11:38:10;4.63;;;1.00;;
66175;SDS011;52977;44.816;20.538;2023-08-07T11:40:37;2.00;;;1.05;;
66175;SDS011;52977;44.816;20.538;2023-08-07T11:43:03;2.88;;;1.23;;
66175;SDS011;52977;44.816;20.538;2023-08-07T11:45:30;6.15;;;1.85;;
66175;SDS011;52977;44.816;20.538;2023-08-07T11:47:56;3.40;;;1.27;;
66175;SDS011;52977;44.816;20.538;2023-08-07T11:50:23;2.67;;;1.10;;
66175;SDS011;52977;44.816;20.538;2023-08-07T11:52:49;8.80;;;3.10;;
66175;SDS011;52977;44.816;20.538;2023-08-07T11:55:16;8.70;;;2.85;;
66175;SDS011;52977;44.816;20.538;2023-08-07T11:57:45;4.13;;;1.80;;
66175;SDS011;52977;44.816;20.538;2023-08-07T12:00:12;2.42;;;1.13;;
66175;SDS011;52977;44.816;20.538;2023-08-07T12:02:43;3.03;;;1.35;;
66175;SDS011;52977;44.816;20.538;2023-08-07T12:05:12;3.78;;;1.55;;
66175;SDS011;52977;44.816;20.538;2023-08-07T12:07:39;6.80;;;1.90;;
66175;SDS011;52977;44.816;20.538;2023-08-07T12:10:11;3.47;;;1.50;;
66175;SDS011;52977;44.816;20.538;2023-08-07T12:12:37;3.58;;;1.20;;
66175;SDS011;52977;44.816;20.538;2023-08-07T12:15:07;5.18;;;1.30;;
66175;SDS011;52977;44.816;20.538;2023-08-07T12:17:37;3.40;;;1.23;;
66175;SDS011;52977;44.816;20.538;2023-08-07T12:20:06;3.25;;;1.45;;
66175;SDS011;52977;44.816;20.538;2023-08-07T12:22:36;2.42;;;1.20;;
66175;SDS011;52977;44.816;20.538;2023-08-07T12:25:03;3.55;;;1.30;;
66175;SDS011;52977;44.816;20.538;2023-08-07T12:27:29;4.63;;;1.27;;
66175;SDS011;52977;44.816;20.538;2023-08-07T12:29:55;3.20;;;1.40;;
66175;SDS011;52977;44.816;20.538;2023-08-07T12:32:21;2.08;;;1.10;;
66175;SDS011;52977;44.816;20.538;2023-08-07T12:34:47;4.10;;;1.50;;
66175;SDS011;52977;44.816;20.538;2023-08-07T12:37:16;3.10;;;1.10;;
66175;SDS011;52977;44.816;20.538;2023-08-07T12:39:42;3.17;;;1.30;;
66175;SDS011;52977;44.816;20.538;2023-08-07T12:42:08;2.10;;;1.20;;
66175;SDS011;52977;44.816;20.538;2023-08-07T12:44:34;2.90;;;1.30;;
66175;SDS011;52977;44.816;20.538;2023-08-07T12:47:01;4.55;;;1.40;;
66175;SDS011;52977;44.816;20.538;2023-08-07T12:49:27;3.05;;;1.30;;
66175;SDS011;52977;44.816;20.538;2023-08-07T12:51:54;2.80;;;1.30;;
66175;SDS011;52977;44.816;20.538;2023-08-07T12:54:22;5.22;;;1.60;;
66175;SDS011;52977;44.816;20.538;2023-08-07T12:56:48;2.78;;;1.52;;
66175;SDS011;52977;44.816;20.538;2023-08-07T12:59:14;2.83;;;1.40;;
66175;SDS011;52977;44.816;20.538;2023-08-07T13:01:40;2.78;;;1.25;;
66175;SDS011;52977;44.816;20.538;2023-08-07T13:04:06;2.83;;;1.20;;
66175;SDS011;52977;44.816;20.538;2023-08-07T13:06:34;4.80;;;1.35;;
66175;SDS011;52977;44.816;20.538;2023-08-07T13:09:00;2.70;;;1.50;;
66175;SDS011;52977;44.816;20.538;2023-08-07T13:11:26;2.60;;;1.38;;
66175;SDS011;52977;44.816;20.538;2023-08-07T13:13:52;2.20;;;1.17;;
66175;SDS011;52977;44.816;20.538;2023-08-07T13:16:18;4.18;;;1.50;;
66175;SDS011;52977;44.816;20.538;2023-08-07T13:18:44;3.88;;;1.50;;
66175;SDS011;52977;44.816;20.538;2023-08-07T13:21:11;4.72;;;1.45;;
66175;SDS011;52977;44.816;20.538;2023-08-07T13:23:37;4.57;;;1.75;;
66175;SDS011;52977;44.816;20.538;2023-08-07T13:26:03;2.95;;;1.40;;
66175;SDS011;52977;44.816;20.538;2023-08-07T13:28:29;2.58;;;1.27;;
66175;SDS011;52977;44.816;20.538;2023-08-07T13:30:55;3.13;;;1.50;;
66175;SDS011;52977;44.816;20.538;2023-08-07T13:33:23;2.90;;;1.42;;
66175;SDS011;52977;44.816;20.538;2023-08-07T13:35:50;4.20;;;1.35;;
66175;SDS011;52977;44.816;20.538;2023-08-07T13:38:16;3.45;;;1.50;;
66175;SDS011;52977;44.816;20.538;2023-08-07T13:40:44;2.60;;;1.33;;
66175;SDS011;52977;44.816;20.538;2023-08-07T13:43:10;2.95;;;1.60;;
66175;SDS011;52977;44.816;20.538;2023-08-07T13:45:36;3.05;;;1.30;;
66175;SDS011;52977;44.816;20.538;2023-08-07T13:48:02;2.60;;;1.30;;
66175;SDS011;52977;44.816;20.538;2023-08-07T13:50:29;3.13;;;1.50;;
66175;SDS011;52977;44.816;20.538;2023-08-07T13:52:55;2.50;;;1.27;;
66175;SDS011;52977;44.816;20.538;2023-08-07T13:55:21;5.65;;;1.40;;
66175;SDS011;52977;44.816;20.538;2023-08-07T13:57:47;5.35;;;1.50;;
66175;SDS011;52977;44.816;20.538;2023-08-07T14:00:14;7.30;;;1.40;;
66175;SDS011;52977;44.816;20.538;2023-08-07T14:02:40;4.68;;;1.52;;
66175;SDS011;52977;44.816;20.538;2023-08-07T14:05:06;2.53;;;1.55;;
66175;SDS011;52977;44.816;20.538;2023-08-07T14:07:32;2.85;;;1.45;;
66175;SDS011;52977;44.816;20.538;2023-08-07T14:09:57;3.35;;;1.55;;
66175;SDS011;52977;44.816;20.538;2023-08-07T14:12:23;5.65;;;1.58;;
66175;SDS011;52977;44.816;20.538;2023-08-07T14:14:48;2.80;;;1.40;;
66175;SDS011;52977;44.816;20.538;2023-08-07T14:17:14;3.75;;;1.60;;
66175;SDS011;52977;44.816;20.538;2023-08-07T14:19:40;4.70;;;1.45;;
66175;SDS011;52977;44.816;20.538;2023-08-07T14:22:05;3.20;;;1.50;;
66175;SDS011;52977;44.816;20.538;2023-08-07T14:24:32;3.45;;;1.60;;
66175;SDS011;52977;44.816;20.538;2023-08-07T14:26:58;3.65;;;1.33;;
66175;SDS011;52977;44.816;20.538;2023-08-07T14:29:24;4.15;;;1.58;;
66175;SDS011;52977;44.816;20.538;2023-08-07T14:31:50;5.20;;;1.77;;
66175;SDS011;52977;44.816;20.538;2023-08-07T14:34:16;3.08;;;1.80;;
66175;SDS011;52977;44.816;20.538;2023-08-07T14:36:42;2.88;;;1.23;;
66175;SDS011;52977;44.816;20.538;2023-08-07T14:39:09;2.85;;;1.38;;
66175;SDS011;52977;44.816;20.538;2023-08-07T14:41:35;4.07;;;1.92;;
66175;SDS011;52977;44.816;20.538;2023-08-07T14:44:01;6.40;;;1.85;;
66175;SDS011;52977;44.816;20.538;2023-08-07T14:46:27;6.78;;;2.22;;